Time;durP1;ratioP1;P1;durP2;ratioP2;P2;SDS_P1;SDS_P2;PMS_P1;PMS_P2;Temp;Humidity;BMP_temperature;BMP_pressure;BME280_temperature;BME280_humidity;BME280_pressure;Samples;Min_cycle;Max_cycle;Signal;HPM_P1;HPM_P2
2023/05/16 00:00:52;;;;;;;9.57;5.93;;;;;;;11.46;88.54;99358.31;4212389;28;20564;-59
2023/05/16 00:03:19;;;;;;;9.30;6.00;;;;;;;11.52;87.90;99352.16;4228227;28;21190;-65
2023/05/16 00:05:46;;;;;;;10.37;6.60;;;;;;;11.47;88.40;99347.31;4223260;28;20243;-64
2023/05/16 00:08:13;;;;;;;7.77;6.03;;;;;;;11.41;88.61;99345.31;4222645;28;21585;-62
2023/05/16 00:10:40;;;;;;;15.37;6.60;;;;;;;11.38;88.64;99337.56;4224492;28;20303;-63
2023/05/16 00:13:06;;;;;;;11.03;6.53;;;;;;;11.51;88.19;99345.91;4227899;28;20386;-60
2023/05/16 00:15:33;;;;;;;8.27;6.23;;;;;;;11.53;88.29;99348.44;4219063;28;20509;-63
2023/05/16 00:18:00;;;;;;;9.13;6.13;;;;;;;11.60;87.85;99352.13;4198641;28;20270;-61
2023/05/16 00:20:27;;;;;;;9.77;6.30;;;;;;;11.51;87.98;99354.06;4215625;28;20244;-62
2023/05/16 00:22:54;;;;;;;8.87;6.30;;;;;;;11.52;87.93;99349.47;4225729;28;20224;-63
2023/05/16 00:25:22;;;;;;;8.63;6.17;;;;;;;11.44;88.21;99347.66;4220263;28;23039;-63
2023/05/16 00:27:48;;;;;;;10.97;7.13;;;;;;;11.49;88.23;99345.25;4224325;28;20298;-61
2023/05/16 00:30:15;;;;;;;10.70;7.10;;;;;;;11.50;87.87;99346.13;4217518;28;26454;-63
2023/05/16 00:32:42;;;;;;;10.17;6.83;;;;;;;11.54;87.95;99342.88;4212685;28;20240;-64
2023/05/16 00:35:10;;;;;;;9.63;6.83;;;;;;;11.52;87.83;99353.03;4213178;28;21754;-62
2023/05/16 00:37:37;;;;;;;15.33;8.17;;;;;;;11.36;88.51;99347.72;4216099;28;25314;-64
2023/05/16 00:40:04;;;;;;;13.60;7.93;;;;;;;11.37;88.75;99354.84;4214174;28;21799;-65
2023/05/16 00:42:31;;;;;;;9.70;7.50;;;;;;;11.38;88.51;99359.22;4218800;28;20756;-64
2023/05/16 00:44:58;;;;;;;10.57;7.43;;;;;;;11.42;88.26;99349.69;4215844;28;22927;-62
2023/05/16 00:47:24;;;;;;;12.90;7.47;;;;;;;11.36;88.70;99350.44;4216813;28;20330;-62
2023/05/16 00:49:51;;;;;;;14.30;8.13;;;;;;;11.34;88.89;99349.75;4216233;28;20231;-63
2023/05/16 00:52:17;;;;;;;15.50;7.70;;;;;;;11.43;88.31;99345.97;4218107;28;21338;-62
2023/05/16 00:54:44;;;;;;;12.40;7.67;;;;;;;11.50;88.19;99355.06;4231807;28;20404;-62
2023/05/16 00:57:10;;;;;;;12.70;8.30;;;;;;;11.53;88.01;99351.16;4206464;28;20290;-62
2023/05/16 00:59:37;;;;;;;13.50;8.53;;;;;;;11.53;88.03;99335.75;4222678;28;21646;-61
2023/05/16 01:02:04;;;;;;;11.93;8.17;;;;;;;11.54;88.09;99353.69;4221503;28;20959;-64
2023/05/16 01:04:31;;;;;;;12.80;8.40;;;;;;;11.54;88.06;99348.28;4218351;28;20435;-61
2023/05/16 01:06:57;;;;;;;13.73;8.93;;;;;;;11.61;87.85;99352.97;4216796;28;21748;-67
2023/05/16 01:09:24;;;;;;;14.53;9.07;;;;;;;11.57;87.80;99353.31;4213380;28;22008;-61
2023/05/16 01:11:58;;;;;;;11.40;8.23;;;;;;;11.57;87.87;99357.91;4227600;28;20241;-62
2023/05/16 01:14:55;;;;;;;10.63;7.90;;;;;;;11.60;87.82;99360.25;4218789;28;20249;-60
2023/05/16 01:17:56;;;;;;;11.40;8.27;;;;;;;11.64;87.67;99363.44;4206573;28;20312;-66
2023/05/16 01:20:47;;;;;;;11.53;7.70;;;;;;;11.61;87.51;99367.34;4232537;28;23836;-61
2023/05/16 01:23:16;;;;;;;14.13;8.37;;;;;;;11.62;87.47;99358.22;4216490;28;20426;-65
2023/05/16 01:26:05;;;;;;;11.83;8.57;;;;;;;11.61;87.65;99369.25;4215027;28;20244;-63
2023/05/16 01:28:32;;;;;;;13.03;9.43;;;;;;;11.64;87.46;99361.59;4201747;28;20255;-63
2023/05/16 01:30:59;;;;;;;10.97;8.20;;;;;;;11.58;87.80;99365.84;4225504;28;20452;-63
2023/05/16 01:33:26;;;;;;;15.50;8.67;;;;;;;11.59;87.61;99369.44;4210412;28;20251;-62
2023/05/16 01:35:59;;;;;;;12.83;8.70;;;;;;;11.56;87.67;99375.19;4215702;28;20759;-62
2023/05/16 01:38:30;;;;;;;11.27;8.30;;;;;;;11.64;87.90;99382.41;4212346;28;21265;-65
2023/05/16 01:41:20;;;;;;;11.77;9.10;;;;;;;11.61;87.29;99382.78;4226681;28;20244;-61
2023/05/16 01:43:48;;;;;;;13.80;9.13;;;;;;;11.69;87.05;99386.28;4203043;28;21878;-63
2023/05/16 01:46:20;;;;;;;12.63;9.47;;;;;;;11.67;87.02;99387.50;4221991;28;20296;-61
2023/05/16 01:48:52;;;;;;;13.77;9.40;;;;;;;11.65;86.84;99390.38;4205264;28;20228;-63
2023/05/16 01:51:24;;;;;;;13.07;9.10;;;;;;;11.63;86.75;99386.19;4194273;28;20434;-64
2023/05/16 01:53:51;;;;;;;13.57;8.47;;;;;;;11.65;87.12;99390.38;4210405;28;20379;-64
2023/05/16 01:56:18;;;;;;;14.20;9.60;;;;;;;11.68;86.94;99395.44;4199723;28;20232;-63
2023/05/16 01:58:47;;;;;;;14.13;9.90;;;;;;;11.67;86.89;99396.44;4209302;28;21542;-59
2023/05/16 02:01:13;;;;;;;15.57;9.97;;;;;;;11.67;86.90;99393.75;4210597;28;20317;-64
2023/05/16 02:03:40;;;;;;;16.03;9.83;;;;;;;11.65;86.94;99387.69;4210804;28;21756;-60
2023/05/16 02:06:07;;;;;;;15.40;10.03;;;;;;;11.69;86.49;99397.13;4209311;28;20232;-61
2023/05/16 02:08:33;;;;;;;13.83;9.37;;;;;;;11.57;86.47;99387.72;4213629;28;20357;-60
2023/05/16 02:11:00;;;;;;;17.30;9.53;;;;;;;11.67;86.56;99392.91;4209049;28;20303;-61
2023/05/16 02:13:26;;;;;;;17.90;10.10;;;;;;;11.66;86.58;99388.50;4218540;28;20648;-59
2023/05/16 02:15:53;;;;;;;13.60;9.43;;;;;;;11.54;87.35;99393.50;4203770;28;21220;-63
2023/05/16 02:18:22;;;;;;;14.00;9.80;;;;;;;11.65;86.71;99395.81;4219038;28;21579;-61
2023/05/16 02:20:49;;;;;;;15.43;10.43;;;;;;;11.54;86.72;99399.78;4216297;28;20306;-63
2023/05/16 02:23:16;;;;;;;14.73;9.67;;;;;;;11.53;87.08;99406.22;4209860;28;21631;-61
2023/05/16 02:25:42;;;;;;;13.63;9.73;;;;;;;11.51;87.29;99410.13;4217392;28;20247;-61
2023/05/16 02:28:09;;;;;;;14.73;10.20;;;;;;;11.66;86.67;99400.22;4207434;28;20307;-61
2023/05/16 02:30:36;;;;;;;15.93;10.43;;;;;;;11.66;86.39;99402.94;4213743;28;20255;-61
2023/05/16 02:33:02;;;;;;;12.67;10.10;;;;;;;11.62;86.51;99414.31;4214063;28;20244;-63
2023/05/16 02:35:29;;;;;;;14.57;9.60;;;;;;;11.63;85.97;99389.72;4211362;28;22897;-61
2023/05/16 02:37:56;;;;;;;12.27;8.87;;;;;;;11.65;85.96;99395.81;4211004;28;20249;-63
2023/05/16 02:40:22;;;;;;;15.23;9.63;;;;;;;11.67;85.70;99404.59;4212183;28;21141;-61
2023/05/16 02:42:48;;;;;;;16.73;9.23;;;;;;;11.54;85.40;99402.50;4213444;28;21340;-61
2023/05/16 02:45:15;;;;;;;13.73;9.80;;;;;;;11.53;85.21;99403.50;4209836;28;20244;-61
2023/05/16 02:47:41;;;;;;;14.20;9.37;;;;;;;11.45;85.53;99403.56;4213497;28;20309;-62
2023/05/16 02:50:08;;;;;;;13.07;10.10;;;;;;;11.49;85.28;99399.44;4227813;28;20236;-60
2023/05/16 02:52:35;;;;;;;16.43;8.80;;;;;;;11.47;85.30;99400.66;4214988;28;25119;-65
2023/05/16 02:55:02;;;;;;;13.67;9.07;;;;;;;11.41;85.55;99405.78;4208379;28;20931;-62
2023/05/16 02:57:31;;;;;;;12.13;9.27;;;;;;;11.32;85.62;99406.00;4208482;28;20381;-65
2023/05/16 02:59:58;;;;;;;12.97;8.87;;;;;;;11.34;85.72;99403.94;4220436;28;20544;-62
2023/05/16 03:02:24;;;;;;;13.40;9.17;;;;;;;11.26;85.85;99416.50;4223996;28;21087;-63
2023/05/16 03:04:51;;;;;;;13.07;8.73;;;;;;;11.17;86.18;99416.75;4214936;28;20311;-61
2023/05/16 03:07:18;;;;;;;12.07;8.70;;;;;;;11.19;86.18;99407.41;4219005;28;22396;-62
2023/05/16 03:09:44;;;;;;;16.87;9.00;;;;;;;11.21;85.91;99410.78;4222364;28;22927;-62
2023/05/16 03:12:11;;;;;;;15.53;9.10;;;;;;;11.18;86.18;99418.44;4215293;28;20243;-60
2023/05/16 03:14:37;;;;;;;11.93;8.97;;;;;;;11.18;86.29;99410.31;4208411;28;20237;-63
2023/05/16 03:17:04;;;;;;;13.20;8.83;;;;;;;11.22;85.79;99417.91;4226099;28;20405;-62
2023/05/16 03:19:31;;;;;;;13.47;9.23;;;;;;;11.22;85.75;99417.91;4230695;28;20317;-67
2023/05/16 03:21:57;;;;;;;13.87;8.10;;;;;;;11.08;86.31;99416.78;4204301;28;21431;-61
2023/05/16 03:24:24;;;;;;;13.97;9.80;;;;;;;11.12;86.33;99416.44;4206002;28;20236;-60
2023/05/16 03:26:51;;;;;;;13.43;9.20;;;;;;;11.17;86.22;99414.91;4205474;28;20239;-62
2023/05/16 03:29:17;;;;;;;14.40;8.70;;;;;;;11.16;86.04;99421.31;4205630;28;20296;-61
2023/05/16 03:31:44;;;;;;;14.40;8.80;;;;;;;11.28;85.53;99415.50;4214145;28;20239;-62
2023/05/16 03:34:10;;;;;;;14.43;8.93;;;;;;;11.22;85.78;99420.63;4215398;28;21035;-63
2023/05/16 03:36:38;;;;;;;12.23;9.03;;;;;;;11.17;86.04;99412.19;4216168;28;25020;-62
2023/05/16 03:39:05;;;;;;;11.97;8.70;;;;;;;11.18;85.91;99424.69;4213252;28;20378;-64
2023/05/16 03:41:31;;;;;;;13.80;9.03;;;;;;;11.19;86.14;99422.84;4213404;28;20335;-63
2023/05/16 03:43:58;;;;;;;15.57;9.20;;;;;;;11.15;85.67;99424.19;4204137;28;20233;-66
2023/05/16 03:46:24;;;;;;;10.93;8.43;;;;;;;11.26;85.59;99430.06;4216702;28;25650;-62
2023/05/16 03:48:52;;;;;;;12.93;8.80;;;;;;;11.32;85.37;99430.41;4208775;28;20345;-64
2023/05/16 03:51:18;;;;;;;11.30;8.30;;;;;;;11.25;85.50;99422.94;4219062;28;20274;-62
2023/05/16 03:53:45;;;;;;;12.97;9.10;;;;;;;11.33;85.28;99423.97;4203699;28;22720;-61
2023/05/16 03:56:11;;;;;;;10.37;8.37;;;;;;;11.36;85.11;99420.88;4206907;28;23513;-64
2023/05/16 03:58:38;;;;;;;14.13;8.77;;;;;;;11.32;85.40;99430.41;4212632;28;21323;-62
2023/05/16 04:01:05;;;;;;;13.90;9.40;;;;;;;11.35;85.23;99425.47;4210369;28;20616;-63
2023/05/16 04:03:32;;;;;;;12.83;8.77;;;;;;;11.30;85.49;99435.13;4209800;28;20232;-66
2023/05/16 04:05:59;;;;;;;20.47;8.67;;;;;;;11.38;85.42;99433.22;4202049;28;20233;-63
2023/05/16 04:08:25;;;;;;;11.50;9.23;;;;;;;11.43;84.72;99427.28;4207827;28;20261;-62
2023/05/16 04:10:52;;;;;;;13.57;9.07;;;;;;;11.52;84.72;99422.63;4215782;28;20232;-63
2023/05/16 04:13:18;;;;;;;13.17;8.97;;;;;;;11.24;85.35;99415.88;4196387;28;23460;-63
2023/05/16 04:15:45;;;;;;;14.50;9.63;;;;;;;11.29;85.72;99438.88;4211959;28;20233;-62
2023/05/16 04:18:12;;;;;;;15.47;9.77;;;;;;;11.48;85.03;99437.59;4218422;28;20239;-62
2023/05/16 04:20:38;;;;;;;13.73;9.13;;;;;;;11.50;84.85;99443.69;4212023;28;21056;-63
2023/05/16 04:23:05;;;;;;;12.03;8.47;;;;;;;11.52;84.80;99445.19;4202293;28;20653;-60
2023/05/16 04:25:32;;;;;;;18.83;8.97;;;;;;;11.63;84.24;99437.69;4210250;28;20244;-63
2023/05/16 04:27:58;;;;;;;13.47;9.77;;;;;;;11.64;84.23;99447.47;4223338;28;20251;-62
2023/05/16 04:30:25;;;;;;;14.60;8.53;;;;;;;11.79;83.71;99442.13;4216781;28;20240;-60
2023/05/16 04:32:51;;;;;;;12.13;8.00;;;;;;;11.92;83.29;99436.13;4212637;28;21329;-63
2023/05/16 04:35:18;;;;;;;10.93;8.10;;;;;;;11.93;83.09;99435.94;4218108;28;20315;-65
2023/05/16 04:37:44;;;;;;;11.13;8.03;;;;;;;12.01;82.92;99445.91;4212716;28;20414;-62
2023/05/16 04:40:11;;;;;;;11.27;7.73;;;;;;;12.12;82.00;99433.81;4206988;28;23217;-62
2023/05/16 04:42:38;;;;;;;11.57;8.70;;;;;;;12.24;81.57;99454.03;4209465;28;21072;-64
2023/05/16 04:45:05;;;;;;;14.97;8.23;;;;;;;12.31;80.57;99455.00;4212380;28;20240;-61
2023/05/16 04:47:32;;;;;;;13.87;8.40;;;;;;;12.36;80.15;99452.56;4218598;28;23014;-62
2023/05/16 04:49:59;;;;;;;11.70;8.17;;;;;;;12.45;79.39;99452.50;4207859;28;20239;-62
2023/05/16 04:52:26;;;;;;;11.43;7.80;;;;;;;12.38;79.51;99454.25;4212324;28;22540;-64
2023/05/16 04:54:52;;;;;;;13.93;7.73;;;;;;;12.48;78.97;99452.13;4209686;28;20233;-63
2023/05/16 04:57:19;;;;;;;10.87;7.57;;;;;;;12.41;78.15;99462.03;4210500;28;21737;-64
2023/05/16 04:59:45;;;;;;;17.40;8.00;;;;;;;12.37;79.67;99458.84;4208694;28;20631;-65
2023/05/16 05:02:12;;;;;;;11.47;7.27;;;;;;;12.58;78.01;99466.28;4214192;28;20303;-64
2023/05/16 05:04:39;;;;;;;10.30;7.43;;;;;;;12.44;78.47;99453.50;4209100;28;22204;-63
2023/05/16 05:07:06;;;;;;;13.53;7.60;;;;;;;12.54;77.93;99473.09;4212607;28;20325;-69
2023/05/16 05:09:32;;;;;;;14.47;8.03;;;;;;;12.58;78.08;99465.44;4203802;28;22908;-62
2023/05/16 05:11:59;;;;;;;13.57;7.63;;;;;;;12.53;78.11;99468.69;4216600;28;21270;-66
2023/05/16 05:14:25;;;;;;;17.43;7.63;;;;;;;12.50;78.09;99456.34;4212330;28;20233;-64
2023/05/16 05:16:52;;;;;;;11.50;8.27;;;;;;;12.54;77.92;99464.97;4197914;28;20300;-62
2023/05/16 05:19:19;;;;;;;15.03;8.73;;;;;;;12.83;77.66;99472.31;4201118;28;20876;-68
2023/05/16 05:21:45;;;;;;;12.00;7.60;;;;;;;13.09;76.23;99478.31;4205021;28;20252;-65
2023/05/16 05:24:12;;;;;;;11.20;8.00;;;;;;;13.08;76.21;99477.47;4215814;28;20235;-64
2023/05/16 05:26:38;;;;;;;13.00;8.23;;;;;;;13.43;75.44;99477.75;4220519;28;20993;-64
2023/05/16 05:29:05;;;;;;;13.27;8.70;;;;;;;13.35;75.73;99472.41;4206035;28;20243;-64
2023/05/16 05:31:35;;;;;;;13.60;8.57;;;;;;;13.25;75.82;99478.13;4218600;28;20275;-67
2023/05/16 05:34:02;;;;;;;12.30;7.97;;;;;;;13.33;75.45;99482.59;4209485;28;20238;-63
2023/05/16 05:36:29;;;;;;;9.37;7.33;;;;;;;13.30;75.83;99488.41;4207555;28;20410;-64
2023/05/16 05:38:56;;;;;;;13.90;8.23;;;;;;;13.26;75.50;99484.41;4214175;28;20232;-67
2023/05/16 05:41:23;;;;;;;12.53;8.33;;;;;;;13.13;75.64;99490.50;4209640;28;20422;-67
2023/05/16 05:43:49;;;;;;;11.73;8.03;;;;;;;13.21;75.85;99495.81;4212810;28;20272;-64
2023/05/16 05:46:16;;;;;;;14.87;8.50;;;;;;;13.20;76.05;99504.19;4217854;28;21298;-64
2023/05/16 05:48:43;;;;;;;15.17;9.30;;;;;;;13.06;76.17;99509.44;4212587;28;20340;-63
2023/05/16 05:51:09;;;;;;;13.07;8.73;;;;;;;12.90;76.63;99496.84;4209111;28;20239;-70
2023/05/16 05:53:36;;;;;;;18.63;9.13;;;;;;;12.70;77.81;99515.53;4197232;28;21663;-66
2023/05/16 05:56:03;;;;;;;17.67;9.07;;;;;;;12.66;78.25;99525.09;4195570;28;20337;-66
2023/05/16 05:58:29;;;;;;;17.90;9.87;;;;;;;12.63;78.66;99533.59;4201059;28;20685;-66
2023/05/16 06:00:56;;;;;;;20.87;9.30;;;;;;;12.63;77.34;99530.88;4203476;28;20228;-66
2023/05/16 06:03:22;;;;;;;11.27;9.60;;;;;;;12.51;77.09;99534.03;4211094;28;21142;-63
2023/05/16 06:05:49;;;;;;;16.53;9.90;;;;;;;12.68;75.88;99548.31;4213287;28;20581;-62
2023/05/16 06:08:16;;;;;;;16.20;9.23;;;;;;;12.63;77.03;99552.59;4209144;28;20256;-64
2023/05/16 06:10:42;;;;;;;12.83;9.00;;;;;;;12.61;76.75;99552.78;4211886;28;20430;-65
2023/05/16 06:13:09;;;;;;;16.37;9.80;;;;;;;12.50;76.75;99561.38;4217303;28;20240;-65
2023/05/16 06:15:36;;;;;;;14.47;10.03;;;;;;;12.36;76.89;99558.41;4216980;28;20296;-64
2023/05/16 06:18:02;;;;;;;15.30;10.07;;;;;;;12.32;77.41;99567.94;4206313;28;20236;-65
2023/05/16 06:20:29;;;;;;;17.20;9.97;;;;;;;12.35;77.43;99577.59;4210175;28;20241;-64
2023/05/16 06:22:55;;;;;;;14.63;9.93;;;;;;;12.44;77.74;99595.53;4211864;28;20347;-64
2023/05/16 06:25:22;;;;;;;14.43;10.57;;;;;;;12.32;78.01;99596.94;4226683;28;20239;-64
2023/05/16 06:27:49;;;;;;;13.70;10.03;;;;;;;12.13;78.40;99609.09;4207360;28;20300;-64
2023/05/16 06:30:15;;;;;;;16.60;10.00;;;;;;;12.15;77.42;99597.06;4225360;28;20236;-66
2023/05/16 06:32:42;;;;;;;12.00;9.73;;;;;;;12.19;77.83;99601.09;4216512;28;20488;-64
2023/05/16 06:35:09;;;;;;;13.17;9.57;;;;;;;12.22;77.29;99594.47;4214825;28;20809;-68
2023/05/16 06:37:35;;;;;;;14.77;9.73;;;;;;;12.27;77.07;99618.34;4205324;28;20235;-63
2023/05/16 06:40:02;;;;;;;12.47;9.10;;;;;;;12.40;76.95;99612.34;4207459;28;20239;-64
2023/05/16 06:42:29;;;;;;;17.00;9.57;;;;;;;12.44;76.56;99617.22;4210366;28;20900;-64
2023/05/16 06:44:55;;;;;;;13.03;9.87;;;;;;;12.42;77.48;99616.56;4196676;28;20240;-67
2023/05/16 06:47:22;;;;;;;13.50;10.07;;;;;;;12.43;78.08;99620.97;4210307;28;20298;-68
2023/05/16 06:49:49;;;;;;;17.37;10.07;;;;;;;12.33;76.97;99626.63;4208254;28;20947;-64
2023/05/16 06:52:16;;;;;;;11.27;7.83;;;;;;;12.42;75.70;99623.88;4204683;28;20232;-64
2023/05/16 06:54:43;;;;;;;14.03;8.90;;;;;;;12.40;76.53;99634.06;4210146;28;20248;-64
2023/05/16 06:57:09;;;;;;;13.73;8.30;;;;;;;12.39;75.86;99627.75;4211092;28;20647;-66
2023/05/16 06:59:36;;;;;;;11.20;7.77;;;;;;;12.43;76.03;99628.25;4199817;28;20475;-67
2023/05/16 07:02:02;;;;;;;13.67;7.60;;;;;;;12.45;75.73;99645.22;4216647;28;20240;-67
2023/05/16 07:04:29;;;;;;;12.97;7.63;;;;;;;12.47;76.02;99646.72;4213470;28;20272;-65
2023/05/16 07:06:56;;;;;;;14.47;7.70;;;;;;;12.50;76.17;99659.94;4203987;28;20323;-69
2023/05/16 07:09:22;;;;;;;11.13;8.33;;;;;;;12.54;76.09;99649.56;4213960;28;20278;-66
2023/05/16 07:11:49;;;;;;;13.07;8.67;;;;;;;12.49;76.36;99652.81;4209976;28;25108;-64
2023/05/16 07:14:15;;;;;;;13.43;9.20;;;;;;;12.49;76.54;99668.28;4207162;28;20701;-64
2023/05/16 07:16:42;;;;;;;15.33;9.07;;;;;;;12.68;76.45;99659.66;4210729;28;21587;-66
2023/05/16 07:19:09;;;;;;;11.40;7.63;;;;;;;12.72;75.93;99672.88;4213661;28;20315;-64
2023/05/16 07:21:36;;;;;;;14.77;8.57;;;;;;;12.86;75.01;99665.81;4220607;28;20239;-67
2023/05/16 07:24:02;;;;;;;12.90;7.63;;;;;;;13.21;74.24;99677.09;4210353;28;20651;-64
2023/05/16 07:26:29;;;;;;;8.70;6.67;;;;;;;14.61;69.14;99675.47;4209554;28;21584;-65
2023/05/16 07:28:56;;;;;;;7.73;5.20;;;;;;;15.80;64.72;99686.78;4208148;28;20236;-66
2023/05/16 07:31:23;;;;;;;6.93;4.87;;;;;;;16.78;60.44;99680.31;4216201;28;20231;-66
2023/05/16 07:33:50;;;;;;;6.20;3.87;;;;;;;16.77;60.15;99686.81;4212498;28;20378;-66
2023/05/16 07:36:16;;;;;;;7.43;3.93;;;;;;;16.60;59.96;99702.75;4209450;28;21762;-70
2023/05/16 07:38:43;;;;;;;4.17;3.00;;;;;;;15.45;62.07;99697.69;4212098;28;20299;-64
2023/05/16 07:41:10;;;;;;;5.40;3.90;;;;;;;14.98;64.51;99697.28;4213265;28;20321;-64
2023/05/16 07:43:37;;;;;;;5.70;4.40;;;;;;;15.43;63.74;99697.88;4217687;28;20235;-67
2023/05/16 07:46:04;;;;;;;7.80;4.40;;;;;;;15.65;64.56;99703.28;4206904;28;21203;-63
2023/05/16 07:48:30;;;;;;;9.57;5.10;;;;;;;14.58;67.67;99719.44;4210449;28;20236;-67
2023/05/16 07:50:57;;;;;;;9.87;5.77;;;;;;;14.32;68.92;99715.34;4212970;28;20229;-67
2023/05/16 07:53:23;;;;;;;8.47;5.13;;;;;;;14.22;69.25;99721.09;4204949;28;20523;-66
2023/05/16 07:55:50;;;;;;;6.90;5.00;;;;;;;14.26;69.82;99727.00;4218622;28;20305;-65
2023/05/16 07:58:17;;;;;;;6.87;4.73;;;;;;;14.27;70.10;99732.25;4214762;28;23058;-65
2023/05/16 08:00:43;;;;;;;7.23;4.83;;;;;;;13.93;70.17;99730.09;4205532;28;20295;-68
2023/05/16 08:03:10;;;;;;;5.13;4.13;;;;;;;13.60;70.66;99727.72;4213425;28;21190;-67
2023/05/16 08:05:36;;;;;;;4.13;3.70;;;;;;;13.90;70.63;99725.03;4211663;28;20229;-67
2023/05/16 08:08:03;;;;;;;7.13;4.20;;;;;;;13.92;71.26;99733.84;4216675;28;22400;-65
2023/05/16 08:10:30;;;;;;;4.67;3.40;;;;;;;14.05;70.34;99733.22;4205670;28;20243;-66
2023/05/16 08:12:56;;;;;;;6.67;3.83;;;;;;;13.98;70.82;99733.09;4195044;28;26405;-65
2023/05/16 08:15:24;;;;;;;6.33;3.90;;;;;;;13.73;70.91;99732.53;4215533;28;22885;-64
2023/05/16 08:17:53;;;;;;;4.27;3.30;;;;;;;13.77;71.41;99734.69;4220843;28;20257;-62
2023/05/16 08:20:20;;;;;;;4.50;3.70;;;;;;;13.77;71.14;99734.69;4212905;28;22082;-64
2023/05/16 08:22:46;;;;;;;4.37;3.60;;;;;;;13.94;70.60;99732.63;4218209;28;20294;-67
2023/05/16 08:25:13;;;;;;;4.83;3.40;;;;;;;13.81;70.76;99737.88;4216511;28;22252;-62
2023/05/16 08:27:40;;;;;;;4.13;3.13;;;;;;;14.00;70.82;99736.47;4216240;28;20696;-63
2023/05/16 08:30:08;;;;;;;3.20;2.90;;;;;;;14.20;70.12;99730.50;4205730;28;20233;-65
2023/05/16 08:32:36;;;;;;;8.07;3.40;;;;;;;14.22;69.48;99733.84;4213110;28;20232;-67
2023/05/16 08:35:02;;;;;;;4.77;3.33;;;;;;;14.22;69.47;99734.72;4220551;28;20235;-69
2023/05/16 08:37:29;;;;;;;4.43;3.37;;;;;;;14.35;70.00;99738.63;4215513;28;20229;-65
2023/05/16 08:39:57;;;;;;;3.90;2.97;;;;;;;14.71;68.73;99726.94;4200882;28;23030;-65
2023/05/16 08:42:23;;;;;;;4.13;3.47;;;;;;;15.36;65.53;99722.38;4214712;28;20302;-64
2023/05/16 08:44:50;;;;;;;4.87;3.07;;;;;;;15.63;65.40;99727.19;4227287;28;21055;-66
2023/05/16 08:47:18;;;;;;;4.10;2.70;;;;;;;15.62;64.88;99726.38;4208564;28;22369;-63
2023/05/16 08:49:47;;;;;;;4.37;2.97;;;;;;;15.72;64.31;99746.97;4209079;28;20231;-67
2023/05/16 08:52:17;;;;;;;4.57;3.23;;;;;;;15.89;64.24;99737.50;4215654;28;20232;-64
2023/05/16 08:54:44;;;;;;;5.43;3.33;;;;;;;15.88;64.13;99738.53;4208268;28;20237;-68
2023/05/16 08:57:20;;;;;;;7.10;3.10;;;;;;;15.47;64.80;99734.63;4212279;28;20691;-66
2023/05/16 08:59:47;;;;;;;6.93;3.53;;;;;;;15.52;64.61;99744.94;4175833;28;21587;-65
2023/05/16 09:02:14;;;;;;;7.10;3.20;;;;;;;15.41;64.78;99743.59;4209012;28;21589;-64
2023/05/16 09:04:42;;;;;;;7.43;3.80;;;;;;;15.59;65.11;99742.28;4201719;28;22335;-66
2023/05/16 09:07:08;;;;;;;4.77;3.30;;;;;;;15.18;66.08;99750.09;4201348;28;20250;-65
2023/05/16 09:09:35;;;;;;;4.73;2.90;;;;;;;15.01;66.06;99754.09;4212534;28;22939;-66
2023/05/16 09:12:01;;;;;;;4.70;2.40;;;;;;;14.80;66.43;99746.78;4212577;28;20232;-66
2023/05/16 09:14:28;;;;;;;4.30;2.10;;;;;;;15.16;65.18;99745.88;4211489;28;20230;-63
2023/05/16 09:17:05;;;;;;;4.10;1.90;;;;;;;15.67;62.28;99742.16;4216472;28;20302;-68
2023/05/16 09:19:39;;;;;;;4.43;2.27;;;;;;;15.53;63.85;99747.47;4225043;28;22328;-65
2023/05/16 09:22:09;;;;;;;3.47;1.97;;;;;;;15.65;64.14;99747.78;4231730;28;20306;-64
2023/05/16 09:24:43;;;;;;;4.63;2.27;;;;;;;16.06;63.02;99757.13;4213204;28;20241;-67
2023/05/16 09:27:11;;;;;;;4.10;1.90;;;;;;;16.27;62.14;99760.84;4234042;28;20254;-64
2023/05/16 09:29:41;;;;;;;2.83;2.10;;;;;;;16.88;60.59;99768.25;4209704;28;21168;-63
2023/05/16 09:32:13;;;;;;;3.17;2.17;;;;;;;16.16;61.34;99781.38;4197591;28;20540;-66
2023/05/16 09:34:48;;;;;;;7.00;2.33;;;;;;;16.27;62.42;99791.72;4221529;28;21502;-64
2023/05/16 09:37:15;;;;;;;2.57;2.17;;;;;;;15.98;63.11;99782.72;4238101;28;20231;-63
2023/05/16 09:39:46;;;;;;;3.37;2.30;;;;;;;16.02;61.71;99785.00;4213139;28;21698;-65
2023/05/16 09:42:14;;;;;;;3.57;2.33;;;;;;;15.86;64.08;99792.50;4214482;28;20243;-65
2023/05/16 09:44:46;;;;;;;2.87;1.90;;;;;;;15.87;62.99;99801.50;4236845;28;21229;-63
2023/05/16 09:47:15;;;;;;;3.03;2.07;;;;;;;15.66;63.84;99804.03;4224861;28;20281;-64
2023/05/16 09:49:43;;;;;;;5.27;2.20;;;;;;;15.67;64.46;99802.16;4210419;28;20231;-65
2023/05/16 09:52:10;;;;;;;3.57;2.07;;;;;;;15.46;64.40;99809.31;4210436;28;20242;-65
2023/05/16 09:54:37;;;;;;;5.43;2.47;;;;;;;15.66;64.65;99814.13;4228292;28;21354;-65
2023/05/16 09:57:04;;;;;;;5.30;2.40;;;;;;;15.82;62.98;99813.81;4189930;28;20429;-65
2023/05/16 09:59:35;;;;;;;3.93;2.40;;;;;;;16.13;62.99;99819.97;4214568;28;22155;-65
2023/05/16 10:02:04;;;;;;;3.07;1.90;;;;;;;15.82;63.34;99832.09;4223630;28;20308;-65
2023/05/16 10:04:30;;;;;;;4.40;2.10;;;;;;;15.86;62.91;99829.84;4216266;28;20239;-66
2023/05/16 10:06:58;;;;;;;7.07;2.40;;;;;;;15.50;63.81;99839.75;4217185;28;20794;-66
2023/05/16 10:09:24;;;;;;;6.10;2.20;;;;;;;15.52;63.86;99848.59;4215215;28;21157;-62
2023/05/16 10:11:52;;;;;;;3.63;2.37;;;;;;;15.36;64.73;99853.28;4225043;28;20237;-68
2023/05/16 10:14:19;;;;;;;6.13;2.83;;;;;;;15.41;64.59;99851.84;4196361;28;20311;-64
2023/05/16 10:16:49;;;;;;;5.67;2.70;;;;;;;15.57;64.63;99854.31;4200487;28;20246;-64
2023/05/16 10:19:19;;;;;;;5.93;2.57;;;;;;;15.75;64.54;99853.03;4220101;28;20496;-65
2023/05/16 10:21:51;;;;;;;2.90;2.33;;;;;;;16.11;62.64;99855.69;4217816;28;21581;-66
2023/05/16 10:24:27;;;;;;;4.10;2.00;;;;;;;15.95;63.67;99858.69;4215736;28;20263;-70
2023/05/16 10:26:54;;;;;;;3.03;1.93;;;;;;;15.97;63.28;99867.53;4210306;28;20306;-64
2023/05/16 10:29:21;;;;;;;3.23;2.70;;;;;;;15.84;63.49;99860.06;4197955;28;20240;-63
2023/05/16 10:31:48;;;;;;;2.80;2.10;;;;;;;15.82;63.31;99867.56;4216567;28;20231;-65
2023/05/16 10:34:15;;;;;;;2.67;2.03;;;;;;;16.08;63.49;99869.72;4208454;28;20289;-61
2023/05/16 10:36:43;;;;;;;6.50;1.80;;;;;;;16.18;62.52;99877.56;4213310;28;20298;-61
2023/05/16 10:39:10;;;;;;;3.07;1.87;;;;;;;16.36;61.03;99876.22;4221488;28;20233;-61
2023/05/16 10:41:37;;;;;;;6.93;1.83;;;;;;;16.17;61.41;99884.06;4204100;28;20247;-64
2023/05/16 10:44:12;;;;;;;3.10;2.00;;;;;;;15.95;61.50;99872.34;4226169;28;20271;-65
2023/05/16 10:46:38;;;;;;;3.10;1.77;;;;;;;16.28;61.21;99877.22;4231279;28;20245;-62
2023/05/16 10:49:23;;;;;;;2.90;1.87;;;;;;;16.72;59.51;99869.72;4209950;28;20233;-62
2023/05/16 10:52:12;;;;;;;2.90;2.00;;;;;;;16.86;59.32;99867.91;4214944;28;20288;-66
2023/05/16 10:54:41;;;;;;;7.80;1.90;;;;;;;16.87;58.56;99873.16;4222923;28;23072;-64
2023/05/16 10:57:16;;;;;;;7.70;1.90;;;;;;;16.83;58.70;99880.09;4216238;28;20239;-62
2023/05/16 10:59:44;;;;;;;5.90;1.70;;;;;;;16.80;59.76;99880.50;4222115;28;20234;-63
2023/05/16 11:02:23;;;;;;;2.73;1.63;;;;;;;17.08;60.07;99885.91;4222469;28;20306;-65
2023/05/16 11:04:58;;;;;;;4.43;2.00;;;;;;;17.38;57.48;99874.66;4216101;28;20275;-64
2023/05/16 11:07:29;;;;;;;2.77;1.97;;;;;;;17.10;59.01;99882.97;4228259;28;20242;-61
2023/05/16 11:10:07;;;;;;;2.90;1.80;;;;;;;16.61;60.38;99891.13;4215033;28;20233;-63
2023/05/16 11:12:44;;;;;;;3.87;1.60;;;;;;;16.53;61.10;99894.00;4223930;28;20334;-61
2023/05/16 11:15:27;;;;;;;3.20;1.83;;;;;;;16.63;60.95;99893.66;4215746;28;21222;-64
2023/05/16 11:18:07;;;;;;;3.33;1.80;;;;;;;16.27;61.53;99892.75;4215664;28;20224;-66
2023/05/16 11:20:38;;;;;;;6.07;1.80;;;;;;;16.17;61.99;99897.72;4205811;28;20244;-63
2023/05/16 11:23:21;;;;;;;3.20;2.00;;;;;;;16.11;60.87;99904.81;4197909;28;20294;-64
2023/05/16 11:25:51;;;;;;;2.77;1.60;;;;;;;16.24;61.86;99911.44;4212728;28;20231;-66
2023/05/16 11:28:18;;;;;;;2.90;1.63;;;;;;;16.30;62.70;99905.16;4210443;28;20232;-66
2023/05/16 11:30:51;;;;;;;4.33;1.80;;;;;;;16.48;59.71;99910.13;4224653;28;20840;-65
2023/05/16 11:33:18;;;;;;;3.37;1.90;;;;;;;16.97;59.46;99910.25;4205701;28;20923;-64